createdAt,value
2018-12-18T00:00:01.671Z,6.94
2018-12-18T00:01:01.591Z,6.94
2018-12-18T00:02:01.528Z,6.91
2018-12-18T00:03:01.469Z,6.89
2018-12-18T00:04:01.408Z,6.91
2018-12-18T00:05:01.347Z,6.89
2018-12-18T00:06:01.283Z,6.94
2018-12-18T00:07:01.223Z,6.90
2018-12-18T00:08:01.162Z,6.90
2018-12-18T00:09:01.101Z,6.95
2018-12-18T00:10:01.041Z,6.91
2018-12-18T00:11:00.978Z,6.90
2018-12-18T00:12:00.916Z,6.87
2018-12-18T00:13:00.856Z,6.91
2018-12-18T00:14:00.794Z,6.91
2018-12-18T00:15:00.736Z,6.91
2018-12-18T00:16:00.671Z,6.94
2018-12-18T00:17:00.610Z,6.94
2018-12-18T00:18:00.548Z,6.91
2018-12-18T00:19:00.490Z,6.95
2018-12-18T00:20:00.426Z,6.95
2018-12-18T00:21:00.365Z,6.84
2018-12-18T00:22:00.305Z,6.91
2018-12-18T00:23:00.242Z,6.95
2018-12-18T00:24:00.181Z,6.87
2018-12-18T00:25:00.120Z,6.89
2018-12-18T00:26:00.058Z,6.91
2018-12-18T00:26:59.996Z,6.91
2018-12-18T00:27:59.940Z,6.90
2018-12-18T00:28:59.878Z,6.91
2018-12-18T00:29:59.815Z,6.90
2018-12-18T00:30:59.754Z,6.91
2018-12-18T00:31:59.691Z,6.90
2018-12-18T00:32:59.630Z,6.95
2018-12-18T00:33:59.568Z,6.94
2018-12-18T00:34:59.508Z,6.98
2018-12-18T00:35:59.446Z,6.94
2018-12-18T00:36:59.385Z,6.90
2018-12-18T00:37:59.323Z,6.87
2018-12-18T00:38:59.262Z,6.94
2018-12-18T00:39:59.202Z,6.91
2018-12-18T00:40:59.141Z,6.95
2018-12-18T00:41:59.080Z,6.90
2018-12-18T00:42:59.017Z,6.91
2018-12-18T00:43:58.957Z,6.94
2018-12-18T00:44:58.898Z,6.98
2018-12-18T00:45:58.834Z,6.99
2018-12-18T00:46:58.777Z,6.99
2018-12-18T00:47:58.714Z,6.91
2018-12-18T00:48:58.650Z,6.94
2018-12-18T00:49:58.589Z,6.98
2018-12-18T00:50:58.527Z,6.97
2018-12-18T00:51:58.466Z,6.91
2018-12-18T00:52:58.406Z,6.97
2018-12-18T00:53:58.343Z,6.99
2018-12-18T00:54:58.283Z,6.97
2018-12-18T00:55:58.221Z,6.91
2018-12-18T00:56:58.160Z,6.94
2018-12-18T00:57:58.099Z,6.91
2018-12-18T00:58:58.040Z,6.95
2018-12-18T00:59:57.976Z,6.95
2018-12-18T01:00:57.915Z,6.90
2018-12-18T01:01:57.854Z,6.91
2018-12-18T01:02:57.793Z,6.91
2018-12-18T01:03:57.734Z,6.94
2018-12-18T01:04:57.671Z,6.89
2018-12-18T01:05:57.608Z,6.91
2018-12-18T01:06:57.630Z,6.97
2018-12-18T01:07:57.488Z,6.90
2018-12-18T01:08:57.428Z,6.91
2018-12-18T01:09:57.366Z,6.94
2018-12-18T01:10:57.303Z,6.91
2018-12-18T01:11:57.243Z,6.91
2018-12-18T01:12:57.181Z,6.97
2018-12-18T01:13:57.121Z,6.95
2018-12-18T01:14:57.058Z,6.90
2018-12-18T01:15:56.997Z,6.95
2018-12-18T01:16:56.935Z,6.91
2018-12-18T01:17:56.874Z,6.87
2018-12-18T01:18:56.812Z,6.95
2018-12-18T01:19:56.752Z,6.95
2018-12-18T01:20:56.694Z,6.95
2018-12-18T01:21:56.813Z,6.89
2018-12-18T01:22:56.569Z,6.90
2018-12-18T01:23:56.507Z,6.91
2018-12-18T01:24:56.448Z,6.95
2018-12-18T01:25:56.384Z,6.98
2018-12-18T01:26:56.325Z,6.87
2018-12-18T01:27:56.262Z,6.91
2018-12-18T01:28:56.201Z,6.91
2018-12-18T01:29:56.141Z,6.95
2018-12-18T01:30:56.078Z,6.99
2018-12-18T01:31:56.017Z,6.90
2018-12-18T01:32:55.956Z,6.95
2018-12-18T01:33:59.293Z,6.95
2018-12-18T01:34:55.833Z,6.94
2018-12-18T01:35:55.778Z,6.87
2018-12-18T01:36:55.712Z,6.94
2018-12-18T01:37:55.650Z,6.97
2018-12-18T01:38:55.590Z,6.86
2018-12-18T01:39:55.529Z,6.94
2018-12-18T01:40:55.466Z,6.95
2018-12-18T01:41:55.405Z,6.90
2018-12-18T01:42:55.344Z,6.90
2018-12-18T01:43:55.284Z,6.95
2018-12-18T01:44:55.222Z,6.95
2018-12-18T01:45:55.162Z,6.95
2018-12-18T01:46:55.100Z,6.94
2018-12-18T01:47:55.038Z,6.97
2018-12-18T01:48:54.978Z,6.90
2018-12-18T01:49:54.922Z,6.99
2018-12-18T01:50:54.855Z,6.99
2018-12-18T01:51:54.793Z,6.91
2018-12-18T01:52:54.733Z,6.94
2018-12-18T01:53:54.670Z,6.95
2018-12-18T01:54:54.610Z,6.90
2018-12-18T01:55:54.549Z,6.95
2018-12-18T01:56:54.488Z,6.95
2018-12-18T01:57:54.425Z,6.91
2018-12-18T01:58:54.365Z,6.99
2018-12-18T01:59:54.305Z,6.89
2018-12-18T02:00:54.244Z,6.95
2018-12-18T02:01:54.183Z,6.97
2018-12-18T02:02:54.120Z,6.91
2018-12-18T02:03:54.067Z,6.90
2018-12-18T02:04:54.001Z,6.95
2018-12-18T02:05:54.058Z,6.91
2018-12-18T02:06:53.876Z,6.94
2018-12-18T02:07:53.820Z,6.97
2018-12-18T02:08:53.752Z,6.98
2018-12-18T02:09:53.692Z,6.91
2018-12-18T02:10:53.631Z,6.90
2018-12-18T02:11:53.570Z,6.98
2018-12-18T02:12:53.508Z,6.99
2018-12-18T02:13:53.447Z,6.97
2018-12-18T02:14:53.385Z,6.91
2018-12-18T02:15:53.324Z,6.98
2018-12-18T02:16:53.264Z,6.98
2018-12-18T02:17:53.201Z,6.99
2018-12-18T02:18:53.141Z,6.98
2018-12-18T02:19:53.080Z,6.94
2018-12-18T02:20:53.020Z,6.99
2018-12-18T02:21:52.958Z,6.97
2018-12-18T02:22:52.896Z,6.99
2018-12-18T02:23:52.835Z,6.99
2018-12-18T02:24:52.774Z,6.91
2018-12-18T02:25:52.712Z,6.91
2018-12-18T02:26:52.651Z,6.94
2018-12-18T02:27:52.593Z,6.94
2018-12-18T02:28:52.529Z,6.94
2018-12-18T02:29:52.466Z,6.90
2018-12-18T02:30:52.407Z,6.97
2018-12-18T02:31:52.347Z,6.94
2018-12-18T02:32:52.288Z,6.97
2018-12-18T02:33:52.223Z,6.98
2018-12-18T02:34:52.163Z,6.94
2018-12-18T02:35:52.102Z,6.97
2018-12-18T02:36:52.039Z,6.99
2018-12-18T02:37:51.977Z,6.99
2018-12-18T02:38:51.916Z,6.94
2018-12-18T02:39:51.855Z,6.97
2018-12-18T02:40:51.795Z,6.95
2018-12-18T02:41:51.733Z,6.98
2018-12-18T02:42:51.671Z,6.95
2018-12-18T02:43:51.613Z,6.97
2018-12-18T02:44:51.551Z,6.94
2018-12-18T02:45:51.489Z,6.90
2018-12-18T02:46:51.427Z,6.98
2018-12-18T02:47:51.369Z,6.91
2018-12-18T02:48:51.306Z,6.95
2018-12-18T02:49:51.243Z,6.97
2018-12-18T02:50:51.193Z,6.94
2018-12-18T02:51:51.121Z,6.95
2018-12-18T02:52:51.065Z,6.97
2018-12-18T02:53:51.005Z,6.98
2018-12-18T02:54:50.942Z,6.90
2018-12-18T02:55:50.876Z,6.91
2018-12-18T02:56:50.815Z,6.98
2018-12-18T02:57:50.753Z,6.91
2018-12-18T02:58:50.693Z,6.90
2018-12-18T02:59:50.632Z,6.94
2018-12-18T03:00:50.572Z,6.98
2018-12-18T03:01:50.508Z,6.98
2018-12-18T03:02:50.449Z,6.98
2018-12-18T03:03:50.390Z,6.91
2018-12-18T03:04:50.327Z,6.98
2018-12-18T03:05:50.264Z,6.94
2018-12-18T03:06:50.203Z,6.91
2018-12-18T03:07:50.143Z,6.94
2018-12-18T03:08:50.081Z,6.90
2018-12-18T03:09:50.019Z,6.94
2018-12-18T03:10:49.959Z,6.97
2018-12-18T03:11:49.899Z,6.97
2018-12-18T03:12:49.836Z,6.97
2018-12-18T03:13:49.776Z,6.95
2018-12-18T03:14:49.714Z,6.91
2018-12-18T03:15:49.653Z,6.97
2018-12-18T03:16:49.598Z,6.90
2018-12-18T03:17:49.530Z,6.94
2018-12-18T03:18:49.470Z,6.95
2018-12-18T03:19:49.408Z,6.97
2018-12-18T03:20:49.347Z,6.98
2018-12-18T03:21:49.285Z,6.99
2018-12-18T03:22:49.228Z,6.99
2018-12-18T03:23:49.162Z,6.94
2018-12-18T03:24:49.102Z,6.91
2018-12-18T03:25:49.041Z,6.95
2018-12-18T03:26:48.979Z,6.91
2018-12-18T03:27:48.918Z,6.97
2018-12-18T03:28:48.859Z,6.91
2018-12-18T03:29:48.800Z,6.94
2018-12-18T03:30:48.735Z,6.94
2018-12-18T03:31:48.674Z,6.90
2018-12-18T03:32:48.613Z,6.99
2018-12-18T03:33:48.552Z,6.95
2018-12-18T03:34:48.489Z,6.97
2018-12-18T03:35:48.428Z,6.99
2018-12-18T03:36:48.368Z,6.91
2018-12-18T03:37:48.305Z,6.91
2018-12-18T03:38:48.254Z,6.90
2018-12-18T03:39:48.184Z,6.99
2018-12-18T03:40:48.122Z,6.97
2018-12-18T03:41:48.060Z,6.94
2018-12-18T03:42:47.999Z,6.94
2018-12-18T03:43:47.938Z,6.99
2018-12-18T03:44:47.879Z,6.97
2018-12-18T03:45:47.814Z,6.94
2018-12-18T03:46:47.754Z,7.01
2018-12-18T03:47:47.695Z,6.90
2018-12-18T03:48:47.632Z,6.99
2018-12-18T03:49:47.570Z,6.99
2018-12-18T03:50:47.509Z,6.91
2018-12-18T03:51:47.448Z,6.94
2018-12-18T03:52:47.401Z,7.01
2018-12-18T03:53:47.325Z,6.98
2018-12-18T03:54:47.267Z,6.99
2018-12-18T03:55:47.204Z,6.89
2018-12-18T03:56:47.143Z,6.90
2018-12-18T03:57:47.081Z,6.99
2018-12-18T03:58:47.019Z,6.97
2018-12-18T03:59:46.959Z,6.99
2018-12-18T04:00:46.898Z,6.98
2018-12-18T04:01:46.835Z,6.97
2018-12-18T04:02:46.775Z,6.95
2018-12-18T04:03:46.716Z,6.94
2018-12-18T04:04:46.658Z,6.94
2018-12-18T04:05:46.592Z,6.95
2018-12-18T04:06:46.530Z,6.91
2018-12-18T04:07:46.469Z,6.97
2018-12-18T04:08:46.410Z,6.95
2018-12-18T04:09:46.346Z,6.91
2018-12-18T04:10:46.289Z,6.95
2018-12-18T04:11:46.236Z,6.97
2018-12-18T04:12:46.163Z,6.97
2018-12-18T04:13:46.101Z,6.95
2018-12-18T04:14:46.041Z,6.98
2018-12-18T04:15:45.981Z,6.95
2018-12-18T04:16:45.919Z,6.90
2018-12-18T04:17:45.857Z,6.99
2018-12-18T04:18:45.797Z,6.91
2018-12-18T04:19:45.735Z,6.90
2018-12-18T04:20:45.684Z,6.99
2018-12-18T04:21:45.612Z,6.95
2018-12-18T04:22:45.552Z,6.91
2018-12-18T04:23:45.490Z,6.99
2018-12-18T04:24:45.435Z,6.97
2018-12-18T04:25:45.423Z,7.01
2018-12-18T04:26:45.311Z,6.95
2018-12-18T04:27:45.246Z,6.98
2018-12-18T04:28:45.185Z,6.97
2018-12-18T04:29:45.123Z,6.90
2018-12-18T04:30:45.064Z,6.97
2018-12-18T04:31:45.001Z,6.87
2018-12-18T04:32:44.942Z,6.90
2018-12-18T04:33:44.878Z,6.87
2018-12-18T04:34:44.817Z,6.90
2018-12-18T04:35:44.756Z,6.98
2018-12-18T04:36:44.695Z,6.95
2018-12-18T04:37:44.640Z,6.95
2018-12-18T04:38:44.573Z,6.95
2018-12-18T04:39:44.512Z,6.91
2018-12-18T04:40:44.452Z,6.90
2018-12-18T04:41:44.390Z,6.94
2018-12-18T04:42:44.327Z,6.99
2018-12-18T04:43:44.267Z,6.95
2018-12-18T04:44:44.205Z,6.94
2018-12-18T04:45:44.151Z,6.94
2018-12-18T04:46:44.087Z,6.94
2018-12-18T04:47:44.024Z,6.91
2018-12-18T04:48:43.961Z,6.90
2018-12-18T04:49:43.920Z,6.90
2018-12-18T04:50:43.844Z,6.94
2018-12-18T04:51:43.778Z,6.97
2018-12-18T04:52:43.716Z,6.89
2018-12-18T04:53:43.656Z,6.89
2018-12-18T04:54:43.598Z,6.84
2018-12-18T04:55:43.533Z,6.86
2018-12-18T04:56:43.472Z,6.89
2018-12-18T04:57:43.412Z,6.86
2018-12-18T04:58:43.374Z,6.90
2018-12-18T04:59:43.288Z,6.84
2018-12-18T05:00:43.228Z,6.84
2018-12-18T05:01:43.164Z,6.80
2018-12-18T05:02:43.104Z,6.86
2018-12-18T05:03:43.043Z,6.80
2018-12-18T05:04:50.012Z,6.81
2018-12-18T05:05:42.919Z,6.89
2018-12-18T05:06:42.859Z,6.90
2018-12-18T05:07:42.798Z,6.84
2018-12-18T05:08:42.737Z,6.80
2018-12-18T05:09:42.675Z,6.83
2018-12-18T05:10:42.613Z,6.79
2018-12-18T05:11:42.553Z,6.80
2018-12-18T05:12:42.491Z,6.84
2018-12-18T05:13:42.429Z,6.83
2018-12-18T05:14:42.374Z,6.87
2018-12-18T05:15:42.318Z,6.83
2018-12-18T05:16:42.247Z,6.81
2018-12-18T05:17:42.185Z,6.86
2018-12-18T05:18:42.134Z,6.83
2018-12-18T05:19:42.064Z,6.87
2018-12-18T05:20:42.010Z,6.81
2018-12-18T05:21:41.940Z,6.79
2018-12-18T05:22:41.878Z,6.73
2018-12-18T05:23:41.822Z,6.81
2018-12-18T05:24:41.760Z,6.79
2018-12-18T05:25:41.715Z,6.79
2018-12-18T05:26:41.635Z,6.77
2018-12-18T05:27:41.575Z,6.77
2018-12-18T05:28:41.514Z,6.79
2018-12-18T05:29:41.467Z,6.84
2018-12-18T05:30:41.395Z,6.83
2018-12-18T05:31:41.329Z,6.83
2018-12-18T05:32:41.268Z,6.87
2018-12-18T05:33:41.206Z,6.83
2018-12-18T05:34:41.144Z,6.79
2018-12-18T05:35:41.082Z,6.79
2018-12-18T05:36:41.021Z,6.81
2018-12-18T05:37:40.961Z,6.77
2018-12-18T05:38:40.903Z,6.81
2018-12-18T05:39:40.837Z,6.84
2018-12-18T05:40:40.785Z,6.81
2018-12-18T05:41:40.720Z,6.81
2018-12-18T05:42:40.656Z,6.76
2018-12-18T05:43:40.592Z,6.76
2018-12-18T05:44:40.536Z,6.80
2018-12-18T05:45:40.469Z,6.80
2018-12-18T05:46:40.409Z,6.77
2018-12-18T05:47:40.348Z,6.81
2018-12-18T05:48:40.286Z,6.79
2018-12-18T05:49:40.228Z,6.83
2018-12-18T05:50:40.163Z,6.83
2018-12-18T05:51:40.187Z,6.76
2018-12-18T05:52:40.041Z,6.79
2018-12-18T05:53:39.979Z,6.77
2018-12-18T05:54:39.918Z,6.73
2018-12-18T05:55:39.858Z,6.73
2018-12-18T05:56:39.796Z,6.76
2018-12-18T05:57:39.734Z,6.81
2018-12-18T05:58:39.672Z,6.77
2018-12-18T05:59:39.612Z,6.76
2018-12-18T06:00:39.554Z,6.76
2018-12-18T06:01:39.496Z,6.69
2018-12-18T06:02:39.430Z,6.79
2018-12-18T06:03:39.366Z,6.73
2018-12-18T06:04:39.312Z,6.72
2018-12-18T06:05:39.243Z,6.76
2018-12-18T06:06:39.185Z,6.68
2018-12-18T06:07:39.121Z,6.65
2018-12-18T06:08:39.060Z,6.71
2018-12-18T06:09:39.002Z,6.69
2018-12-18T06:10:38.937Z,6.69
2018-12-18T06:11:38.875Z,6.65
2018-12-18T06:12:38.815Z,6.76
2018-12-18T06:13:38.753Z,6.72
2018-12-18T06:14:38.691Z,6.81
2018-12-18T06:15:38.630Z,6.69
2018-12-18T06:16:38.569Z,6.72
2018-12-18T06:17:38.508Z,6.73
2018-12-18T06:18:38.447Z,6.71
2018-12-18T06:19:38.388Z,6.66
2018-12-18T06:20:38.324Z,6.72
2018-12-18T06:21:38.276Z,6.68
2018-12-18T06:22:38.200Z,6.69
2018-12-18T06:23:38.163Z,6.69
2018-12-18T06:24:38.082Z,6.65
2018-12-18T06:25:38.022Z,6.65
2018-12-18T06:26:37.955Z,6.68
2018-12-18T06:27:37.893Z,6.71
2018-12-18T06:28:37.835Z,6.76
2018-12-18T06:29:37.771Z,6.65
2018-12-18T06:30:37.715Z,6.73
2018-12-18T06:31:37.648Z,6.66
2018-12-18T06:32:37.587Z,6.69
2018-12-18T06:33:37.525Z,6.73
2018-12-18T06:34:37.464Z,6.63
2018-12-18T06:35:37.403Z,6.66
2018-12-18T06:36:37.342Z,6.73
2018-12-18T06:37:37.282Z,6.71
2018-12-18T06:38:37.219Z,6.69
2018-12-18T06:39:37.158Z,6.71
2018-12-18T06:40:37.165Z,6.69
2018-12-18T06:41:37.033Z,6.66
2018-12-18T06:42:36.975Z,6.69
2018-12-18T06:43:36.912Z,6.66
2018-12-18T06:44:36.856Z,6.72
2018-12-18T06:45:36.790Z,6.77
2018-12-18T06:46:36.731Z,6.72
2018-12-18T06:47:36.670Z,6.68
2018-12-18T06:48:36.605Z,6.69
2018-12-18T06:49:36.547Z,6.72
2018-12-18T06:50:36.484Z,6.69
2018-12-18T06:51:36.420Z,6.73
2018-12-18T06:52:36.359Z,6.69
2018-12-18T06:53:36.298Z,6.66
2018-12-18T06:54:36.237Z,6.72
2018-12-18T06:55:36.175Z,6.79
2018-12-18T06:56:36.115Z,6.76
2018-12-18T06:57:36.052Z,6.66
2018-12-18T06:58:35.992Z,6.76
2018-12-18T06:59:35.933Z,6.77
2018-12-18T07:00:35.869Z,6.79
2018-12-18T07:01:35.806Z,6.69
2018-12-18T07:02:35.746Z,6.69
2018-12-18T07:03:35.684Z,6.69
2018-12-18T07:04:35.625Z,6.65
2018-12-18T07:05:35.561Z,6.66
2018-12-18T07:06:35.500Z,6.63
2018-12-18T07:07:35.439Z,6.73
2018-12-18T07:08:35.378Z,6.69
2018-12-18T07:09:35.314Z,6.76
2018-12-18T07:10:35.255Z,6.66
2018-12-18T07:11:35.192Z,6.72
2018-12-18T07:12:35.132Z,6.77
2018-12-18T07:13:35.070Z,6.76
2018-12-18T07:14:35.008Z,6.68
2018-12-18T07:15:34.947Z,6.68
2018-12-18T07:16:34.889Z,6.65
2018-12-18T07:17:34.823Z,6.72
2018-12-18T07:18:34.766Z,6.63
2018-12-18T07:19:34.701Z,6.66
2018-12-18T07:20:34.640Z,6.72
2018-12-18T07:21:34.578Z,6.69
2018-12-18T07:22:34.517Z,6.73
2018-12-18T07:23:34.456Z,6.72
2018-12-18T07:24:34.396Z,6.66
2018-12-18T07:25:34.376Z,6.65
2018-12-18T07:26:34.273Z,6.63
2018-12-18T07:27:34.219Z,6.69
2018-12-18T07:28:34.217Z,6.65
2018-12-18T07:29:34.087Z,6.69
2018-12-18T07:30:34.036Z,6.72
2018-12-18T07:31:33.975Z,6.61
2018-12-18T07:32:33.902Z,6.63
2018-12-18T07:33:33.840Z,6.69
2018-12-18T07:34:33.782Z,6.65
2018-12-18T07:35:33.721Z,6.68
2018-12-18T07:36:33.657Z,6.62
2018-12-18T07:37:33.594Z,6.61
2018-12-18T07:38:33.534Z,6.66
2018-12-18T07:39:33.474Z,6.68
2018-12-18T07:40:33.411Z,6.61
2018-12-18T07:41:33.352Z,6.61
2018-12-18T07:42:33.288Z,6.72
2018-12-18T07:43:33.229Z,6.71
2018-12-18T07:44:33.167Z,6.58
2018-12-18T07:45:33.106Z,6.58
2018-12-18T07:46:33.045Z,6.72
2018-12-18T07:47:32.982Z,6.62
2018-12-18T07:48:32.920Z,6.59
2018-12-18T07:49:32.858Z,6.61
2018-12-18T07:50:32.797Z,6.58
2018-12-18T07:51:32.743Z,6.61
2018-12-18T07:52:32.675Z,6.63
2018-12-18T07:53:32.614Z,6.69
2018-12-18T07:54:32.553Z,6.62
2018-12-18T07:55:32.492Z,6.59
2018-12-18T07:56:32.430Z,6.59
2018-12-18T07:57:32.404Z,6.58
2018-12-18T07:58:32.310Z,6.59
2018-12-18T07:59:32.246Z,6.59
2018-12-18T08:00:32.185Z,6.62
2018-12-18T08:01:32.120Z,6.65
2018-12-18T08:02:32.061Z,6.68
2018-12-18T08:03:32.001Z,6.61
2018-12-18T08:04:31.941Z,6.62
2018-12-18T08:05:31.875Z,6.65
2018-12-18T08:06:31.813Z,6.65
2018-12-18T08:07:31.752Z,6.59
2018-12-18T08:08:31.691Z,6.61
2018-12-18T08:09:31.638Z,6.66
2018-12-18T08:10:31.570Z,6.59
2018-12-18T08:11:31.507Z,6.61
2018-12-18T08:12:31.444Z,6.63
2018-12-18T08:13:31.383Z,6.65
2018-12-18T08:14:31.322Z,6.68
2018-12-18T08:15:31.260Z,6.59
2018-12-18T08:16:31.203Z,6.62
2018-12-18T08:17:31.139Z,6.68
2018-12-18T08:18:31.082Z,6.61
2018-12-18T08:19:31.014Z,6.61
2018-12-18T08:20:30.953Z,6.53
2018-12-18T08:21:30.892Z,6.65
2018-12-18T08:22:30.831Z,6.62
2018-12-18T08:23:30.769Z,6.63
2018-12-18T08:24:30.708Z,6.54
2018-12-18T08:25:30.646Z,6.61
2018-12-18T08:26:30.583Z,6.68
2018-12-18T08:27:30.524Z,6.59
2018-12-18T08:28:30.461Z,6.59
2018-12-18T08:29:30.406Z,6.54
2018-12-18T08:30:30.341Z,6.56
2018-12-18T08:31:30.276Z,6.66
2018-12-18T08:32:30.218Z,6.61
2018-12-18T08:33:30.152Z,6.56
2018-12-18T08:34:30.091Z,6.63
2018-12-18T08:35:36.275Z,6.62
2018-12-18T08:36:29.970Z,6.66
2018-12-18T08:37:29.906Z,6.65
2018-12-18T08:38:29.870Z,6.59
2018-12-18T08:39:29.784Z,6.61
2018-12-18T08:40:29.723Z,6.65
2018-12-18T08:41:29.660Z,6.59
2018-12-18T08:42:29.600Z,6.61
2018-12-18T08:43:29.538Z,6.61
2018-12-18T08:44:29.476Z,6.61
2018-12-18T08:45:29.417Z,6.58
2018-12-18T08:46:29.356Z,6.63
2018-12-18T08:47:29.292Z,6.51
2018-12-18T08:48:29.271Z,6.58
2018-12-18T08:49:29.169Z,6.56
2018-12-18T08:50:29.107Z,6.65
2018-12-18T08:51:29.048Z,6.61
2018-12-18T08:52:28.986Z,6.63
2018-12-18T08:53:28.923Z,6.63
2018-12-18T08:54:28.861Z,6.63
2018-12-18T08:55:28.799Z,6.65
2018-12-18T08:56:28.739Z,6.62
2018-12-18T08:57:28.676Z,6.59
2018-12-18T08:58:28.615Z,6.58
2018-12-18T08:59:28.558Z,6.65
2018-12-18T09:00:28.493Z,6.62
2018-12-18T09:01:28.430Z,6.59
2018-12-18T09:02:28.369Z,6.66
2018-12-18T09:03:28.307Z,6.61
2018-12-18T09:04:28.248Z,6.61
2018-12-18T09:05:28.184Z,6.62
2018-12-18T09:06:28.122Z,6.61
2018-12-18T09:07:28.073Z,6.68
2018-12-18T09:08:28.003Z,6.71
2018-12-18T09:09:27.938Z,6.62
2018-12-18T09:10:27.877Z,6.66
2018-12-18T09:11:27.817Z,6.68
2018-12-18T09:12:27.754Z,6.59
2018-12-18T09:13:27.693Z,6.68
2018-12-18T09:14:27.630Z,6.66
2018-12-18T09:15:27.569Z,6.68
2018-12-18T09:16:27.507Z,6.68
2018-12-18T09:17:27.446Z,6.62
2018-12-18T09:18:27.387Z,6.72
2018-12-18T09:19:27.327Z,6.71
2018-12-18T09:20:27.261Z,6.66
2018-12-18T09:21:27.199Z,6.68
2018-12-18T09:22:27.138Z,6.63
2018-12-18T09:23:27.076Z,6.66
2018-12-18T09:24:27.015Z,6.68
2018-12-18T09:25:26.954Z,6.66
2018-12-18T09:26:26.892Z,6.65
2018-12-18T09:27:26.830Z,6.69
2018-12-18T09:28:26.769Z,6.72
2018-12-18T09:29:26.710Z,6.72
2018-12-18T09:30:26.646Z,6.71
2018-12-18T09:31:26.587Z,6.72
2018-12-18T09:32:26.522Z,6.72
2018-12-18T09:33:26.460Z,6.71
2018-12-18T09:34:26.399Z,6.73
2018-12-18T09:35:26.339Z,6.69
2018-12-18T09:36:26.278Z,6.72
2018-12-18T09:37:26.214Z,6.66
2018-12-18T09:38:26.154Z,6.72
2018-12-18T09:39:26.096Z,6.71
2018-12-18T09:40:26.031Z,6.69
2018-12-18T09:41:25.971Z,6.66
2018-12-18T09:42:25.907Z,6.69
2018-12-18T09:43:25.848Z,6.71
2018-12-18T09:44:25.788Z,6.69
2018-12-18T09:45:25.724Z,6.63
2018-12-18T09:46:25.662Z,6.71
2018-12-18T09:47:25.601Z,6.71
2018-12-18T09:48:25.540Z,6.71
2018-12-18T09:49:25.478Z,6.68
2018-12-18T09:50:25.417Z,6.76
2018-12-18T09:51:25.355Z,6.65
2018-12-18T09:52:25.297Z,6.68
2018-12-18T09:53:25.232Z,6.65
2018-12-18T09:54:25.170Z,6.65
2018-12-18T09:55:25.117Z,6.65
2018-12-18T09:56:25.048Z,6.63
2018-12-18T09:57:24.986Z,6.68
2018-12-18T09:58:24.932Z,6.73
2018-12-18T09:59:24.886Z,6.72
2018-12-18T10:00:24.819Z,6.77
2018-12-18T10:01:24.745Z,6.76
2018-12-18T10:02:24.679Z,6.77
2018-12-18T10:03:24.624Z,6.76
2018-12-18T10:04:24.556Z,6.79
2018-12-18T10:05:24.495Z,6.81
2018-12-18T10:06:24.432Z,6.81
2018-12-18T10:07:24.385Z,6.81
2018-12-18T10:08:24.310Z,6.81
2018-12-18T10:09:24.248Z,6.84
2018-12-18T10:10:24.746Z,6.90
2018-12-18T10:11:24.128Z,6.84
2018-12-18T10:12:24.064Z,6.94
2018-12-18T10:13:24.003Z,6.87
2018-12-18T10:14:23.941Z,6.87
2018-12-18T10:15:23.880Z,6.91
2018-12-18T10:16:23.820Z,6.94
2018-12-18T10:17:23.757Z,6.87
2018-12-18T10:18:23.696Z,6.97
2018-12-18T10:19:23.635Z,6.97
2018-12-18T10:20:23.590Z,6.98
2018-12-18T10:21:23.513Z,6.97
2018-12-18T10:22:23.452Z,6.99
2018-12-18T10:23:23.393Z,6.99
2018-12-18T10:24:23.331Z,6.94
2018-12-18T10:25:23.306Z,6.97
2018-12-18T10:26:23.220Z,6.94
2018-12-18T10:27:23.153Z,6.97
2018-12-18T10:28:23.083Z,6.98
2018-12-18T10:29:23.041Z,6.97
2018-12-18T10:30:22.970Z,7.01
2018-12-18T10:31:22.903Z,7.02
2018-12-18T10:32:22.850Z,6.98
2018-12-18T10:33:22.813Z,6.99
2018-12-18T10:34:22.726Z,6.95
2018-12-18T10:35:22.670Z,6.97
2018-12-18T10:36:22.603Z,6.97
2018-12-18T10:37:22.530Z,6.98
2018-12-18T10:38:22.514Z,7.01
2018-12-18T10:39:22.410Z,7.01
2018-12-18T10:40:22.347Z,6.97
2018-12-18T10:41:22.285Z,6.98
2018-12-18T10:42:22.226Z,6.95
2018-12-18T10:43:22.163Z,6.99
2018-12-18T10:44:22.104Z,6.94
2018-12-18T10:45:22.040Z,6.99
2018-12-18T10:46:21.983Z,6.95
2018-12-18T10:47:21.919Z,6.91
2018-12-18T10:48:21.858Z,6.94
2018-12-18T10:49:21.796Z,6.94
2018-12-18T10:50:21.737Z,6.99
2018-12-18T10:51:21.673Z,6.97
2018-12-18T10:52:21.629Z,6.95
2018-12-18T10:53:21.552Z,6.99
2018-12-18T10:54:21.491Z,6.97
2018-12-18T10:55:21.431Z,6.94
2018-12-18T10:56:21.368Z,6.98
2018-12-18T10:57:21.306Z,7.02
2018-12-18T10:58:24.103Z,6.95
2018-12-18T10:59:21.186Z,7.09
2018-12-18T11:00:21.122Z,7.01
2018-12-18T11:01:21.061Z,7.08
2018-12-18T11:02:20.999Z,7.04
2018-12-18T11:03:20.945Z,7.12
2018-12-18T11:04:20.877Z,7.04
2018-12-18T11:05:20.816Z,7.04
2018-12-18T11:06:20.758Z,7.07
2018-12-18T11:07:20.694Z,7.12
2018-12-18T11:08:20.632Z,7.01
2018-12-18T11:09:20.574Z,7.05
2018-12-18T11:10:20.511Z,7.08
2018-12-18T11:11:20.449Z,7.02
2018-12-18T11:12:20.387Z,7.07
2018-12-18T11:13:20.325Z,7.04
2018-12-18T11:14:20.271Z,7.09
2018-12-18T11:15:20.204Z,7.09
2018-12-18T11:16:20.146Z,7.07
2018-12-18T11:17:20.085Z,7.07
2018-12-18T11:18:20.019Z,7.07
2018-12-18T11:19:19.958Z,7.05
2018-12-18T11:20:19.898Z,7.07
2018-12-18T11:21:19.840Z,7.08
2018-12-18T11:22:19.775Z,7.08
2018-12-18T11:23:19.871Z,7.08
2018-12-18T11:24:19.654Z,7.15
2018-12-18T11:25:19.591Z,7.08
2018-12-18T11:26:19.534Z,7.08
2018-12-18T11:27:19.471Z,7.17
2018-12-18T11:28:19.409Z,7.16
2018-12-18T11:29:19.345Z,7.08
2018-12-18T11:30:19.285Z,7.20
2018-12-18T11:31:19.227Z,7.22
2018-12-18T11:32:19.163Z,7.20
2018-12-18T11:33:19.101Z,7.19
2018-12-18T11:34:19.041Z,7.20
2018-12-18T11:35:18.979Z,7.22
2018-12-18T11:36:18.918Z,7.22
2018-12-18T11:37:18.877Z,7.20
2018-12-18T11:38:18.795Z,7.20
2018-12-18T11:39:18.740Z,7.19
2018-12-18T11:40:18.674Z,7.22
2018-12-18T11:41:18.611Z,7.23
2018-12-18T11:42:18.550Z,7.20
2018-12-18T11:43:18.490Z,7.23
2018-12-18T11:44:18.446Z,7.24
2018-12-18T11:45:18.369Z,7.26
2018-12-18T11:46:18.306Z,7.24
2018-12-18T11:47:18.244Z,7.17
2018-12-18T11:48:18.183Z,7.22
2018-12-18T11:49:18.122Z,7.20
2018-12-18T11:50:18.062Z,7.23
2018-12-18T11:51:18.000Z,7.34
2018-12-18T11:52:17.941Z,7.26
2018-12-18T11:53:17.877Z,7.23
2018-12-18T11:54:17.815Z,7.26
2018-12-18T11:55:17.758Z,7.29
2018-12-18T11:56:17.696Z,7.31
2018-12-18T11:57:17.632Z,7.31
2018-12-18T11:58:17.571Z,7.26
2018-12-18T11:59:17.511Z,7.23
2018-12-18T12:00:17.450Z,7.22
2018-12-18T12:01:17.389Z,7.31
2018-12-18T12:02:17.327Z,7.34
2018-12-18T12:03:17.277Z,7.38
2018-12-18T12:04:17.209Z,7.40
2018-12-18T12:05:17.144Z,7.32
2018-12-18T12:06:22.843Z,7.27
2018-12-18T12:07:17.022Z,7.27
2018-12-18T12:08:16.963Z,7.26
2018-12-18T12:09:16.898Z,7.31
2018-12-18T12:10:16.837Z,7.27
2018-12-18T12:11:16.777Z,7.31
2018-12-18T12:12:16.717Z,7.34
2018-12-18T12:13:16.656Z,7.37
2018-12-18T12:14:16.593Z,7.32
2018-12-18T12:15:16.533Z,7.32
2018-12-18T12:16:16.471Z,7.29
2018-12-18T12:17:16.412Z,7.37
2018-12-18T12:18:16.348Z,7.35
2018-12-18T12:19:16.287Z,7.40
2018-12-18T12:20:16.230Z,7.34
2018-12-18T12:21:16.164Z,7.29
2018-12-18T12:22:16.103Z,7.35
2018-12-18T12:23:16.052Z,7.29
2018-12-18T12:24:15.985Z,7.44
2018-12-18T12:25:15.921Z,7.32
2018-12-18T12:26:15.859Z,7.41
2018-12-18T12:27:15.800Z,7.35
2018-12-18T12:28:15.737Z,7.38
2018-12-18T12:29:15.679Z,7.37
2018-12-18T12:30:15.614Z,7.41
2018-12-18T12:31:15.554Z,7.42
2018-12-18T12:32:15.498Z,7.44
2018-12-18T12:33:15.436Z,7.42
2018-12-18T12:34:15.371Z,7.35
2018-12-18T12:35:15.310Z,7.41
2018-12-18T12:36:15.249Z,7.40
2018-12-18T12:37:15.187Z,7.37
2018-12-18T12:38:15.127Z,7.41
2018-12-18T12:39:15.065Z,7.42
2018-12-18T12:40:15.006Z,7.38
2018-12-18T12:41:14.943Z,7.41
2018-12-18T12:42:14.883Z,7.45
2018-12-18T12:43:14.821Z,7.42
2018-12-18T12:44:14.762Z,7.40
2018-12-18T12:45:14.699Z,7.41
2018-12-18T12:46:14.638Z,7.41
2018-12-18T12:47:14.578Z,7.44
2018-12-18T12:48:14.516Z,7.45
2018-12-18T12:49:14.454Z,7.45
2018-12-18T12:50:14.397Z,7.42
2018-12-18T12:51:14.333Z,7.40
2018-12-18T12:52:14.272Z,7.42
2018-12-18T12:53:14.217Z,7.44
2018-12-18T12:54:14.149Z,7.44
2018-12-18T12:55:14.088Z,7.38
2018-12-18T12:56:14.029Z,7.45
2018-12-18T12:57:13.968Z,7.41
2018-12-18T12:58:13.904Z,7.47
2018-12-18T12:59:13.844Z,7.50
2018-12-18T13:00:13.783Z,7.52
2018-12-18T13:01:13.722Z,7.44
2018-12-18T13:02:13.660Z,7.53
2018-12-18T13:03:13.606Z,7.49
2018-12-18T13:04:13.542Z,7.49
2018-12-18T13:05:13.477Z,7.56
2018-12-18T13:06:13.415Z,7.49
2018-12-18T13:07:13.357Z,7.47
2018-12-18T13:08:13.296Z,7.52
2018-12-18T13:09:13.235Z,7.52
2018-12-18T13:10:13.175Z,7.52
2018-12-18T13:11:13.111Z,7.42
2018-12-18T13:12:13.051Z,7.50
2018-12-18T13:13:12.990Z,7.55
2018-12-18T13:14:12.929Z,7.50
2018-12-18T13:15:12.867Z,7.59
2018-12-18T13:16:12.810Z,7.50
2018-12-18T13:17:12.744Z,7.53